Cedar Rapids, IA

1:38 AM CST on January 21, 2017 (GMT -0600)
Cedar Rapids | | Change Station
Active Advisory: Dense Fog Advisory

Elev 863 ft 41.88 °N, 91.71 °W | Updated 24 minutes ago

Light Rain
Light Rain Fog
39 °F
Feels Like 35 °F
N
6
Wind Variable Wind from East

Today
High -- | Low -- °F
--% Chance of Precip.
Yesterday
High -- | Low -- °F
Precip. -- in
Pressure 29.45 in
Visibility 0.2 miles
Clouds
Windchill 35 °F
Dew Point 39 °F
Humidity 100%
Rainfall 0.00 in
Snow Depth Not available.
7:28 AM 5:08 PM
Last Quarter, 37% visible
SPECI KCID 210714Z AUTO 10005KT 1/4SM -RA FG VV002 04/04 A2945 RMK AO2 RAB11 P0000 T00390039
Pressure 29.45 in
Visibility 0.2 miles
Clouds
Windchill 35 °F
Dew Point 39 °F
Humidity 100%
Rainfall 0.00 in
Snow Depth Not available.
7:28 AM 5:08 PM
Last Quarter, 37% visible
SPECI KCID 210714Z AUTO 10005KT 1/4SM -RA FG VV002 04/04 A2945 RMK AO2 RAB11 P0000 T00390039

Get Your Daily Forecast Email!

Thanks for signing up!

Be on the lookout for a verification email in your inbox.

You'll start receiving the daily forecast at 8 AM.

×

10-Day Weather Forecast

Almanac

Astronomy

Jan. 21, 2017 Rise Set
Actual Time
Civil Twilight
Nautical Twilight
Astronomical Twilight
Moon
Length of Visible Light
Length of Day
Tomorrow will be .
, % of the Moon is Illuminated

Today's Extremes

State Highs State Lows

Community

WunderPhotos

Upload Photos

1,962,540 photos uploaded!

WunderBlog® & News

Nearby

Air Quality

  Air Quality AQ Index Pollutant
Not available.

Snow Depth

Station Depth Elevation

Earthquake Activity

City Distance Mag. Time & Date
Minimum magnitude displayed is 2.5.

Coastal Water Temperatures

Place Temperature

Stations

Nearby Weather Stations

Station Location Temp. Windchill Dew Point Humidity Wind Precip. Elev Updated Type
                   

Watches & Warnings

Dense Fog Advisory
Issued: 8:51 PM CST Jan. 20, 2017 – National Weather Service

... Dense fog advisory remains in effect until 10 am CST
Saturday...

* timing... through mid-morning Saturday. Overnight into Saturday
morning the dense fog is expected to lift and visibilities
improve from south to north.

* Visibility... less than 1/4 mile at times.

* Impacts... driving will be hazardous due to severely reduced
visibility at times.

Precautionary/preparedness actions...

A dense fog advisory means visibilities will frequently be
reduced to less than one quarter mile. If driving... slow down...
use your headlights... and leave plenty of distance ahead of you.